Terminal Aerodrome Forecast
Issued by NWS Wichita, KS

Home | Current Version | Previous Version | Text Only | Print | Product List | Glossary Off
Versions: 1 2 3 4 5 6 7 8 9 10 11 12

512
FTUS43 KICT 121720
TAFICT
TAF
KICT 121720Z 1218/1318 28008KT P6SM SKC
     FM122100 23009KT P6SM SKC
     FM131500 31007KT P6SM SKC=

USA.gov is the U.S. government's official web portal to all federal, state and local government web resources and services.